Time;durP1;ratioP1;P1;durP2;ratioP2;P2;SDS_P1;SDS_P2;PMS_P1;PMS_P2;Temp;Humidity;BMP_temperature;BMP_pressure;BME280_temperature;BME280_humidity;BME280_pressure;Samples;Min_cycle;Max_cycle;Signal;HPM_P1;HPM_P2
2022/08/05 00:01:23;;;;;;;3.40;2.33;;;19.70;92.60;;;;;;4175975;28;20056;-63
2022/08/05 00:03:24;;;;;;;3.78;2.50;;;19.70;92.60;;;;;;4178505;28;20033;-64
2022/08/05 00:05:25;;;;;;;2.78;2.00;;;19.70;92.60;;;;;;4177901;28;20075;-63
2022/08/05 00:07:26;;;;;;;2.25;2.05;;;19.70;92.70;;;;;;4178141;28;20029;-64
2022/08/05 00:09:28;;;;;;;4.78;2.50;;;19.60;93.00;;;;;;4178319;28;20029;-63
2022/08/05 00:11:29;;;;;;;2.50;2.30;;;19.50;93.40;;;;;;4177301;28;20037;-64
2022/08/05 00:13:34;;;;;;;2.60;1.90;;;19.40;93.50;;;;;;4178421;28;20021;-64
2022/08/05 00:15:35;;;;;;;2.50;2.30;;;19.40;93.70;;;;;;4177502;28;20025;-64
2022/08/05 00:17:36;;;;;;;3.15;2.25;;;19.40;93.80;;;;;;4178934;28;20021;-66
2022/08/05 00:19:38;;;;;;;5.88;2.42;;;19.30;94.30;;;;;;4176087;28;20045;-63
2022/08/05 00:21:39;;;;;;;2.40;2.20;;;19.20;94.40;;;;;;4178411;28;20099;-65
2022/08/05 00:23:41;;;;;;;3.20;2.45;;;19.20;94.50;;;;;;4177180;28;20032;-63
2022/08/05 00:25:42;;;;;;;3.63;2.20;;;19.20;94.70;;;;;;4178371;28;21108;-64
2022/08/05 00:27:43;;;;;;;3.72;2.22;;;19.20;94.80;;;;;;4177143;28;20041;-66
2022/08/05 00:29:44;;;;;;;3.58;2.30;;;19.10;95.10;;;;;;4177987;28;20053;-66
2022/08/05 00:31:46;;;;;;;5.18;2.42;;;19.10;95.70;;;;;;4176866;28;20381;-63
2022/08/05 00:33:47;;;;;;;3.03;2.55;;;19.10;95.50;;;;;;4177936;28;20481;-66
2022/08/05 00:35:48;;;;;;;4.30;2.28;;;19.00;95.70;;;;;;4177303;28;20029;-63
2022/08/05 00:37:49;;;;;;;2.22;2.03;;;19.00;95.70;;;;;;4176357;28;20079;-65
2022/08/05 00:39:50;;;;;;;2.75;2.22;;;19.10;96.10;;;;;;4177665;28;20032;-63
2022/08/05 00:41:51;;;;;;;2.83;2.50;;;19.10;95.80;;;;;;4177392;28;20060;-62
2022/08/05 00:43:53;;;;;;;3.88;2.22;;;19.10;95.70;;;;;;4177910;28;20037;-64
2022/08/05 00:45:54;;;;;;;2.88;2.15;;;19.10;96.10;;;;;;4175966;28;20045;-63
2022/08/05 00:47:56;;;;;;;2.97;2.20;;;19.10;96.00;;;;;;4178294;28;20045;-63
2022/08/05 00:49:57;;;;;;;4.70;2.20;;;19.00;96.30;;;;;;4177114;28;20079;-63
2022/08/05 00:51:58;;;;;;;3.97;2.35;;;18.90;96.70;;;;;;4177864;28;20083;-63
2022/08/05 00:53:59;;;;;;;6.07;2.65;;;18.80;97.10;;;;;;4177052;28;20052;-64
2022/08/05 00:56:00;;;;;;;4.60;2.30;;;18.70;97.40;;;;;;4177860;28;20082;-64
2022/08/05 00:58:03;;;;;;;4.50;2.60;;;18.60;97.70;;;;;;4176679;28;20033;-65
2022/08/05 01:00:06;;;;;;;6.45;2.75;;;18.50;98.10;;;;;;4177968;28;20171;-63
2022/08/05 01:02:07;;;;;;;2.40;2.20;;;18.50;98.90;;;;;;4176843;28;20570;-63
2022/08/05 01:04:08;;;;;;;2.97;2.15;;;18.40;99.00;;;;;;4177753;28;20029;-64
2022/08/05 01:06:09;;;;;;;3.95;2.67;;;18.30;99.50;;;;;;4177058;28;20032;-64
2022/08/05 01:08:12;;;;;;;3.50;2.45;;;18.20;99.90;;;;;;4177532;28;20090;-66
2022/08/05 01:10:17;;;;;;;4.90;2.50;;;18.20;99.90;;;;;;4177322;28;20106;-62
2022/08/05 01:12:20;;;;;;;5.25;2.30;;;18.20;99.90;;;;;;4177465;28;20539;-64
2022/08/05 01:14:52;;;;;;;6.65;2.80;;;18.20;99.90;;;;;;4177441;28;20025;-63
2022/08/05 01:17:03;;;;;;;2.92;2.53;;;18.10;99.90;;;;;;4178173;28;20104;-64
2022/08/05 01:19:23;;;;;;;4.13;2.25;;;18.10;99.90;;;;;;4176714;28;20032;-64
2022/08/05 01:22:05;;;;;;;3.27;2.50;;;18.10;99.90;;;;;;4177843;28;20025;-66
2022/08/05 01:24:28;;;;;;;2.80;2.42;;;18.10;99.90;;;;;;4165967;28;20339;-63
2022/08/05 01:27:06;;;;;;;3.10;2.28;;;18.20;99.90;;;;;;4177853;28;20102;-69
2022/08/05 01:29:15;;;;;;;3.28;2.60;;;18.20;99.90;;;;;;4176584;28;20094;-64
2022/08/05 01:31:33;;;;;;;3.42;2.90;;;18.20;99.90;;;;;;4180238;28;20037;-63
2022/08/05 01:33:41;;;;;;;4.00;2.47;;;18.20;99.90;;;;;;4179701;28;20091;-64
2022/08/05 01:35:48;;;;;;;3.13;2.33;;;18.30;99.90;;;;;;4180900;28;20020;-64
2022/08/05 01:37:52;;;;;;;3.15;2.65;;;18.30;99.90;;;;;;4180024;28;20170;-65
2022/08/05 01:39:55;;;;;;;3.30;2.60;;;18.30;99.90;;;;;;4180737;28;20082;-68
2022/08/05 01:41:59;;;;;;;3.45;2.67;;;18.20;99.90;;;;;;4179702;28;20041;-65
2022/08/05 01:44:01;;;;;;;2.78;2.40;;;18.20;99.90;;;;;;4180852;28;20029;-64
2022/08/05 01:46:04;;;;;;;2.67;2.13;;;18.10;99.90;;;;;;4180155;28;20033;-64
2022/08/05 01:48:07;;;;;;;4.97;2.53;;;18.10;99.90;;;;;;4180663;28;20098;-64
2022/08/05 01:50:11;;;;;;;3.22;2.00;;;18.10;99.90;;;;;;4179853;28;20423;-63
2022/08/05 01:52:14;;;;;;;5.43;2.13;;;18.10;99.90;;;;;;4180789;28;20427;-64
2022/08/05 01:54:17;;;;;;;3.58;2.55;;;18.10;99.90;;;;;;4179687;28;20047;-64
2022/08/05 01:56:22;;;;;;;3.70;2.60;;;18.10;99.90;;;;;;4180595;28;20451;-64
2022/08/05 01:58:24;;;;;;;4.28;2.45;;;18.00;99.90;;;;;;4179211;28;20049;-66
2022/08/05 02:00:27;;;;;;;5.03;2.80;;;18.00;99.90;;;;;;4180434;28;20041;-65
2022/08/05 02:02:31;;;;;;;4.00;2.20;;;18.10;99.90;;;;;;4179528;28;20033;-64
2022/08/05 02:04:35;;;;;;;3.65;2.38;;;18.10;99.90;;;;;;4180571;28;20476;-69
2022/08/05 02:06:38;;;;;;;5.80;2.50;;;18.10;99.90;;;;;;4179613;28;20025;-64
2022/08/05 02:08:39;;;;;;;3.03;2.60;;;18.10;99.90;;;;;;4180085;28;20029;-64
2022/08/05 02:10:44;;;;;;;6.32;2.78;;;18.00;99.90;;;;;;4179473;28;20484;-64
2022/08/05 02:13:13;;;;;;;2.97;2.47;;;17.90;99.90;;;;;;4179760;28;20396;-66
2022/08/05 02:15:42;;;;;;;4.15;2.30;;;17.80;99.90;;;;;;4177838;28;20602;-64
2022/08/05 02:17:51;;;;;;;2.90;2.60;;;17.80;99.90;;;;;;4176514;28;20037;-64
2022/08/05 02:19:59;;;;;;;5.97;3.15;;;17.80;99.90;;;;;;4179346;28;20425;-64
2022/08/05 02:22:22;;;;;;;6.20;2.80;;;17.70;99.90;;;;;;4180308;28;20087;-63
2022/08/05 02:24:31;;;;;;;4.13;2.63;;;17.70;99.90;;;;;;4179202;28;20025;-64
2022/08/05 02:26:46;;;;;;;7.05;3.83;;;17.70;99.90;;;;;;4180152;28;20045;-63
2022/08/05 02:28:48;;;;;;;3.53;2.70;;;17.60;99.90;;;;;;4179027;28;20033;-64
2022/08/05 02:30:55;;;;;;;6.15;2.72;;;17.50;99.90;;;;;;4180066;28;20040;-63
2022/08/05 02:32:57;;;;;;;6.55;3.00;;;17.40;99.90;;;;;;4162078;28;20445;-64
2022/08/05 02:35:03;;;;;;;2.65;2.45;;;17.30;99.90;;;;;;4163522;28;20107;-64
2022/08/05 02:37:08;;;;;;;2.60;2.25;;;17.30;99.90;;;;;;4162310;28;20657;-65
2022/08/05 02:39:10;;;;;;;3.22;2.58;;;17.20;99.90;;;;;;4179280;28;20444;-66
2022/08/05 02:41:13;;;;;;;2.60;2.40;;;17.20;99.90;;;;;;4178398;28;20029;-65
2022/08/05 02:43:16;;;;;;;3.17;2.38;;;17.20;99.90;;;;;;4178767;28;20543;-69
2022/08/05 02:45:19;;;;;;;5.60;3.17;;;17.20;99.90;;;;;;4179359;28;20033;-65
2022/08/05 02:47:21;;;;;;;7.82;3.53;;;17.20;99.90;;;;;;4179503;28;20052;-64
2022/08/05 02:49:23;;;;;;;14.65;9.07;;;17.20;99.90;;;;;;4179328;28;20095;-64
2022/08/05 02:51:25;;;;;;;9.38;4.47;;;17.10;99.90;;;;;;4178905;28;20041;-64
2022/08/05 02:53:28;;;;;;;5.43;2.72;;;17.00;99.90;;;;;;4179914;28;20082;-65
2022/08/05 02:55:31;;;;;;;2.83;2.35;;;16.90;99.90;;;;;;4178099;28;20095;-65
2022/08/05 02:57:34;;;;;;;4.70;3.10;;;16.90;99.90;;;;;;4178174;28;20041;-64
2022/08/05 02:59:35;;;;;;;4.55;2.88;;;16.90;99.90;;;;;;4177992;28;20091;-65
2022/08/05 03:01:41;;;;;;;4.32;2.90;;;16.90;99.90;;;;;;4179467;28;20072;-64
2022/08/05 03:03:45;;;;;;;6.97;3.03;;;16.80;99.90;;;;;;4178675;28;20163;-64
2022/08/05 03:05:48;;;;;;;5.00;3.63;;;16.80;99.90;;;;;;4179800;28;20033;-65
2022/08/05 03:07:50;;;;;;;3.58;2.72;;;16.60;99.90;;;;;;4178625;28;20029;-67
2022/08/05 03:09:51;;;;;;;6.72;2.80;;;16.60;99.90;;;;;;4179714;28;20033;-64
2022/08/05 03:11:52;;;;;;;3.92;2.70;;;16.60;99.90;;;;;;4178162;28;20048;-72
2022/08/05 03:13:54;;;;;;;5.03;2.88;;;16.60;99.90;;;;;;4179100;28;20075;-64
2022/08/05 03:15:55;;;;;;;3.70;2.78;;;16.70;99.90;;;;;;4178539;28;20032;-64
2022/08/05 03:17:56;;;;;;;4.50;2.95;;;16.70;99.90;;;;;;4179543;28;20029;-65
2022/08/05 03:19:57;;;;;;;3.55;2.92;;;16.90;99.90;;;;;;4178383;28;20025;-66
2022/08/05 03:21:58;;;;;;;4.18;2.85;;;17.00;99.90;;;;;;4178604;28;20499;-64
2022/08/05 03:24:00;;;;;;;4.10;2.90;;;17.20;99.90;;;;;;4178556;28;20036;-65
2022/08/05 03:26:02;;;;;;;4.60;2.80;;;17.40;99.90;;;;;;4178227;28;20029;-68
2022/08/05 03:28:06;;;;;;;5.47;2.58;;;17.60;99.90;;;;;;4178421;28;20037;-65
2022/08/05 03:30:08;;;;;;;10.23;2.92;;;17.80;99.90;;;;;;4177641;28;20063;-64
2022/08/05 03:32:10;;;;;;;4.88;3.08;;;18.10;99.90;;;;;;4162631;28;20029;-64
2022/08/05 03:34:11;;;;;;;3.13;2.40;;;18.20;99.90;;;;;;4161550;28;20029;-64
2022/08/05 03:36:12;;;;;;;7.93;2.53;;;18.30;99.90;;;;;;4167804;28;20410;-63
2022/08/05 03:38:14;;;;;;;7.15;3.10;;;18.40;99.90;;;;;;4170946;28;20045;-65
2022/08/05 03:40:15;;;;;;;5.00;2.78;;;18.50;99.90;;;;;;4179139;28;20423;-65
2022/08/05 03:42:16;;;;;;;3.92;3.05;;;18.50;99.90;;;;;;4176122;28;20082;-70
2022/08/05 03:44:17;;;;;;;9.98;2.95;;;18.60;99.90;;;;;;4177140;28;20037;-64
2022/08/05 03:46:18;;;;;;;8.48;3.13;;;18.60;99.90;;;;;;4178110;28;20094;-64
2022/08/05 03:48:20;;;;;;;6.35;2.50;;;18.50;99.90;;;;;;4178693;28;20071;-64
2022/08/05 03:50:21;;;;;;;12.23;3.28;;;18.60;99.90;;;;;;4177669;28;20118;-65
2022/08/05 03:52:26;;;;;;;6.63;2.78;;;18.80;99.90;;;;;;4178266;28;20412;-66
2022/08/05 03:54:47;;;;;;;4.78;2.80;;;19.20;99.90;;;;;;4178063;28;20062;-64
2022/08/05 03:56:49;;;;;;;13.48;3.60;;;19.60;99.90;;;;;;4177904;28;20145;-66
2022/08/05 03:58:52;;;;;;;10.70;3.00;;;20.00;99.90;;;;;;4177816;28;20045;-65
2022/08/05 04:00:55;;;;;;;7.85;3.20;;;20.50;99.90;;;;;;4177371;28;20696;-64
2022/08/05 04:03:03;;;;;;;12.52;3.30;;;21.00;99.90;;;;;;4178100;28;20029;-65
2022/08/05 04:05:07;;;;;;;8.05;2.70;;;21.50;99.90;;;;;;4178001;28;20062;-67
2022/08/05 04:07:10;;;;;;;5.03;3.03;;;21.80;99.90;;;;;;4178407;28;20035;-65
2022/08/05 04:09:12;;;;;;;9.63;3.03;;;22.10;99.80;;;;;;4176499;28;20029;-65
2022/08/05 04:11:13;;;;;;;8.48;2.85;;;22.50;99.20;;;;;;4177718;28;20113;-65
2022/08/05 04:13:17;;;;;;;4.80;2.70;;;22.90;98.60;;;;;;4176959;28;20489;-64
2022/08/05 04:15:18;;;;;;;3.28;2.60;;;23.30;97.90;;;;;;4178573;28;20029;-71
2022/08/05 04:17:19;;;;;;;3.08;2.38;;;23.60;97.30;;;;;;4177482;28;20036;-64
2022/08/05 04:19:20;;;;;;;13.10;3.47;;;24.00;96.60;;;;;;4178323;28;20045;-65
2022/08/05 04:21:21;;;;;;;4.38;2.60;;;24.20;96.00;;;;;;4176522;28;20505;-69
2022/08/05 04:23:25;;;;;;;7.45;3.30;;;24.50;95.50;;;;;;4178466;28;20107;-65
2022/08/05 04:25:26;;;;;;;6.88;2.60;;;25.00;94.90;;;;;;4175766;28;20095;-66
2022/08/05 04:27:27;;;;;;;6.15;2.42;;;25.10;94.30;;;;;;4178235;28;20033;-65
2022/08/05 04:29:28;;;;;;;4.75;2.35;;;25.40;94.00;;;;;;4176940;28;20029;-65
2022/08/05 04:31:30;;;;;;;4.80;3.13;;;25.80;93.40;;;;;;4177493;28;20079;-64
2022/08/05 04:33:31;;;;;;;4.50;2.47;;;26.20;92.70;;;;;;4177384;28;20032;-66
2022/08/05 04:35:32;;;;;;;11.80;2.70;;;26.10;92.20;;;;;;4176993;28;20025;-62
2022/08/05 04:37:33;;;;;;;7.10;2.60;;;26.30;91.90;;;;;;4173503;28;20025;-69
2022/08/05 04:39:34;;;;;;;6.18;3.17;;;26.70;91.50;;;;;;4168510;28;20024;-63
2022/08/05 04:41:35;;;;;;;8.95;3.72;;;27.10;91.00;;;;;;4177687;28;20099;-64
2022/08/05 04:43:38;;;;;;;10.70;3.15;;;27.40;90.30;;;;;;4176325;28;20432;-66
2022/08/05 04:45:39;;;;;;;6.13;2.90;;;27.70;89.70;;;;;;4176905;28;20033;-65
2022/08/05 04:47:40;;;;;;;5.95;3.50;;;28.00;88.50;;;;;;4173735;28;20586;-64
2022/08/05 04:49:41;;;;;;;10.10;3.33;;;27.90;87.70;;;;;;4176733;28;20083;-63
2022/08/05 04:51:43;;;;;;;9.55;3.83;;;27.70;87.20;;;;;;4176892;28;20086;-63
2022/08/05 04:53:44;;;;;;;10.32;3.72;;;27.60;87.30;;;;;;4177995;28;20025;-63
2022/08/05 04:55:45;;;;;;;7.85;2.83;;;27.70;86.90;;;;;;4176174;28;20473;-63
2022/08/05 04:57:46;;;;;;;3.30;2.90;;;27.90;86.20;;;;;;4178055;28;20110;-64
2022/08/05 04:59:47;;;;;;;8.00;2.20;;;28.20;85.40;;;;;;4176285;28;20103;-64
2022/08/05 05:01:49;;;;;;;9.50;2.80;;;28.40;84.30;;;;;;4177275;28;20037;-68
2022/08/05 05:03:51;;;;;;;6.70;2.80;;;28.10;84.10;;;;;;4176744;28;20482;-66
2022/08/05 05:05:52;;;;;;;9.07;2.67;;;28.30;84.10;;;;;;4179769;28;20025;-71
2022/08/05 05:07:55;;;;;;;4.95;2.97;;;28.60;83.20;;;;;;4180623;28;20063;-69
2022/08/05 05:09:56;;;;;;;8.23;2.78;;;29.10;82.10;;;;;;4180297;28;20466;-66
2022/08/05 05:11:58;;;;;;;12.30;2.63;;;29.10;81.70;;;;;;4180771;28;20509;-70
2022/08/05 05:13:59;;;;;;;2.78;1.50;;;28.90;81.50;;;;;;4179787;28;20454;-63
2022/08/05 05:16:00;;;;;;;5.15;1.80;;;28.90;81.10;;;;;;4180600;28;20062;-62
2022/08/05 05:18:01;;;;;;;4.82;2.00;;;29.30;80.40;;;;;;4180428;28;20086;-65
2022/08/05 05:20:04;;;;;;;2.50;2.10;;;29.90;79.60;;;;;;4180988;28;20024;-65
2022/08/05 05:22:05;;;;;;;2.75;2.00;;;30.30;77.80;;;;;;4179918;28;20489;-64
2022/08/05 05:24:06;;;;;;;8.30;2.53;;;30.20;77.00;;;;;;4179363;28;20091;-65
2022/08/05 05:26:07;;;;;;;4.35;2.30;;;30.20;76.30;;;;;;4180007;28;20029;-70
2022/08/05 05:28:11;;;;;;;1.75;1.65;;;30.30;75.80;;;;;;4181024;28;20029;-64
2022/08/05 05:30:14;;;;;;;4.75;1.50;;;30.20;75.00;;;;;;4179709;28;20078;-70
2022/08/05 05:32:15;;;;;;;5.45;1.85;;;30.40;74.90;;;;;;4180971;28;20025;-68
2022/08/05 05:34:16;;;;;;;1.90;1.77;;;30.50;74.10;;;;;;4180132;28;20078;-66
2022/08/05 05:36:17;;;;;;;5.90;1.80;;;30.10;74.20;;;;;;4180509;28;20044;-71
2022/08/05 05:38:18;;;;;;;3.72;1.48;;;29.90;74.00;;;;;;4179836;28;20139;-65
2022/08/05 05:40:22;;;;;;;3.80;1.52;;;29.90;73.70;;;;;;4179931;28;20037;-66
2022/08/05 05:42:23;;;;;;;6.70;1.70;;;30.20;73.40;;;;;;4180292;28;20025;-69
2022/08/05 05:44:24;;;;;;;7.40;2.22;;;30.50;72.60;;;;;;4179512;28;20095;-67
2022/08/05 05:46:25;;;;;;;5.60;1.98;;;30.90;72.30;;;;;;4179217;28;20497;-65
2022/08/05 05:48:26;;;;;;;4.68;1.92;;;30.80;72.10;;;;;;4179727;28;20033;-64
2022/08/05 05:50:27;;;;;;;7.05;2.47;;;31.30;71.70;;;;;;4180315;28;20041;-67
2022/08/05 05:52:29;;;;;;;7.80;2.22;;;31.70;71.10;;;;;;4179090;28;20041;-63
2022/08/05 05:54:31;;;;;;;4.80;2.15;;;31.40;70.60;;;;;;4180009;28;20049;-62
2022/08/05 05:56:32;;;;;;;8.13;2.22;;;31.30;70.90;;;;;;4179319;28;20037;-64
2022/08/05 05:58:33;;;;;;;9.60;2.00;;;31.00;70.60;;;;;;4180087;28;20036;-65
2022/08/05 06:00:34;;;;;;;7.97;2.67;;;30.90;70.40;;;;;;4177474;28;20083;-70
2022/08/05 06:02:35;;;;;;;8.40;2.25;;;29.90;70.90;;;;;;4180221;28;20043;-64
2022/08/05 06:04:36;;;;;;;5.72;2.15;;;29.50;72.00;;;;;;4179015;28;20090;-64
2022/08/05 06:06:42;;;;;;;10.35;3.05;;;28.90;72.90;;;;;;4179966;28;20045;-66
2022/08/05 06:08:44;;;;;;;11.88;2.88;;;28.80;73.30;;;;;;4179305;28;20048;-63
2022/08/05 06:10:45;;;;;;;12.02;2.47;;;29.00;73.00;;;;;;4179812;28;20182;-65
2022/08/05 06:12:46;;;;;;;4.78;2.33;;;30.00;72.00;;;;;;4178330;28;20083;-69
2022/08/05 06:14:47;;;;;;;12.23;2.60;;;30.40;70.90;;;;;;4179140;28;20039;-69
2022/08/05 06:16:48;;;;;;;7.22;2.88;;;30.10;70.80;;;;;;4180214;28;20351;-69
2022/08/05 06:18:49;;;;;;;14.32;3.05;;;29.00;71.80;;;;;;4177770;28;20051;-69
2022/08/05 06:20:50;;;;;;;8.98;2.80;;;28.00;73.70;;;;;;4179936;28;20087;-71
2022/08/05 06:22:51;;;;;;;8.80;3.38;;;27.70;74.70;;;;;;4178646;28;20551;-64
2022/08/05 06:24:52;;;;;;;10.00;3.03;;;27.50;74.90;;;;;;4179987;28;20033;-65
2022/08/05 06:26:54;;;;;;;5.40;2.85;;;27.70;75.00;;;;;;4178929;28;20037;-68
2022/08/05 06:28:55;;;;;;;13.18;3.25;;;27.30;75.10;;;;;;4180011;28;20025;-65
2022/08/05 06:30:56;;;;;;;6.00;3.47;;;26.90;76.00;;;;;;4178596;28;20083;-65
2022/08/05 06:32:57;;;;;;;16.73;3.53;;;26.50;77.00;;;;;;4179968;28;20300;-64
2022/08/05 06:34:58;;;;;;;5.75;2.90;;;26.10;78.00;;;;;;4178715;28;20473;-64
2022/08/05 06:36:59;;;;;;;5.50;3.55;;;25.90;78.60;;;;;;4179617;28;20036;-64
2022/08/05 06:39:01;;;;;;;9.13;3.33;;;25.80;79.00;;;;;;4177223;28;20037;-63
2022/08/05 06:41:02;;;;;;;10.25;2.97;;;25.90;79.10;;;;;;4179283;28;20036;-65
2022/08/05 06:43:04;;;;;;;7.00;2.58;;;25.80;79.50;;;;;;4179254;28;20037;-64
2022/08/05 06:45:07;;;;;;;9.88;3.55;;;25.80;80.00;;;;;;4178902;28;20021;-65
2022/08/05 06:47:09;;;;;;;7.80;3.03;;;25.90;80.00;;;;;;4179660;28;20021;-63
2022/08/05 06:49:10;;;;;;;21.38;3.95;;;26.60;79.20;;;;;;4178374;28;20025;-64
2022/08/05 06:51:11;;;;;;;16.98;3.53;;;26.80;78.30;;;;;;4179531;28;20021;-64
2022/08/05 06:53:13;;;;;;;11.30;3.08;;;26.90;77.90;;;;;;4178297;28;20033;-64
2022/08/05 06:55:16;;;;;;;10.40;3.22;;;27.00;77.40;;;;;;4179146;28;20044;-67
2022/08/05 06:57:17;;;;;;;8.68;3.22;;;26.90;77.10;;;;;;4178297;28;20082;-63
2022/08/05 06:59:18;;;;;;;9.35;2.88;;;26.70;77.40;;;;;;4178846;28;20041;-64
2022/08/05 07:01:20;;;;;;;4.50;2.33;;;26.60;78.20;;;;;;4177887;28;20087;-64
2022/08/05 07:03:21;;;;;;;6.22;2.75;;;26.40;78.20;;;;;;4179187;28;20492;-64
2022/08/05 07:05:22;;;;;;;6.53;2.50;;;26.10;78.40;;;;;;4178135;28;20076;-64
2022/08/05 07:07:23;;;;;;;7.60;2.78;;;26.20;78.40;;;;;;4179260;28;20310;-64
2022/08/05 07:09:24;;;;;;;5.22;2.42;;;26.50;78.20;;;;;;4178242;28;20025;-64
2022/08/05 07:11:27;;;;;;;5.13;2.85;;;26.50;77.80;;;;;;4178789;28;20124;-64
2022/08/05 07:18:08;;;;;;;7.03;3.22;;;26.50;78.50;;;;;;4178404;28;20029;-65
2022/08/05 07:20:09;;;;;;;6.53;2.97;;;26.50;78.60;;;;;;4178572;28;20033;-64
2022/08/05 07:22:10;;;;;;;8.30;2.67;;;26.40;78.80;;;;;;4177861;28;20369;-63
2022/08/05 07:24:12;;;;;;;10.30;2.80;;;26.40;78.90;;;;;;4178281;28;20041;-64
2022/08/05 07:26:13;;;;;;;8.38;2.42;;;26.40;79.20;;;;;;4178297;28;20376;-64
2022/08/05 07:28:14;;;;;;;12.60;2.90;;;26.20;79.60;;;;;;4177128;28;20040;-64
2022/08/05 07:30:15;;;;;;;4.43;2.67;;;26.20;79.80;;;;;;4178639;28;20029;-63
2022/08/05 07:32:16;;;;;;;8.88;2.92;;;26.40;79.60;;;;;;4177764;28;20354;-64
2022/08/05 07:34:17;;;;;;;9.88;2.92;;;26.80;79.10;;;;;;4178987;28;20434;-63
2022/08/05 07:36:19;;;;;;;3.72;2.50;;;27.00;78.70;;;;;;4176327;28;20819;-64
2022/08/05 07:38:20;;;;;;;3.17;2.38;;;27.10;78.70;;;;;;4178758;28;20370;-63
2022/08/05 07:40:22;;;;;;;6.38;2.45;;;27.10;78.50;;;;;;4177712;28;20028;-63
2022/08/05 07:42:23;;;;;;;6.47;2.30;;;27.30;78.20;;;;;;4178634;28;20029;-63
2022/08/05 07:44:24;;;;;;;7.60;2.58;;;27.30;78.10;;;;;;4177359;28;20449;-63
2022/08/05 07:46:28;;;;;;;3.28;2.50;;;27.30;78.10;;;;;;4178560;28;20033;-64
2022/08/05 07:48:29;;;;;;;7.30;2.85;;;27.50;77.90;;;;;;4177635;28;20029;-64
2022/08/05 07:50:30;;;;;;;3.67;3.00;;;27.40;77.80;;;;;;4178419;28;20036;-64
2022/08/05 07:52:31;;;;;;;2.28;2.08;;;27.70;77.70;;;;;;4177672;28;20013;-63
2022/08/05 07:54:32;;;;;;;9.07;2.65;;;27.80;77.20;;;;;;4177773;28;20039;-63
2022/08/05 07:56:34;;;;;;;6.32;2.22;;;27.60;77.80;;;;;;4177606;28;20408;-63
2022/08/05 07:58:35;;;;;;;11.45;3.35;;;27.50;78.30;;;;;;4177057;28;20048;-64
2022/08/05 08:00:36;;;;;;;6.22;2.38;;;27.40;78.70;;;;;;4178168;28;20044;-66
2022/08/05 08:02:37;;;;;;;5.35;2.17;;;27.30;78.90;;;;;;4177321;28;20132;-64
2022/08/05 08:04:38;;;;;;;3.67;2.35;;;27.40;78.90;;;;;;4178046;28;20497;-65
2022/08/05 08:06:39;;;;;;;4.82;2.30;;;27.50;78.80;;;;;;4177091;28;20028;-66
2022/08/05 08:08:40;;;;;;;4.65;2.15;;;27.70;78.90;;;;;;4178116;28;20075;-71
2022/08/05 08:10:42;;;;;;;4.68;2.40;;;28.10;78.50;;;;;;4177449;28;20029;-64
2022/08/05 08:12:43;;;;;;;11.75;3.05;;;28.30;78.20;;;;;;4178330;28;20469;-64
2022/08/05 08:14:44;;;;;;;9.40;2.58;;;28.40;78.00;;;;;;4176812;28;20460;-63
2022/08/05 08:16:45;;;;;;;7.63;2.58;;;28.40;77.80;;;;;;4178028;28;20473;-64
2022/08/05 08:18:46;;;;;;;6.60;3.13;;;28.50;78.00;;;;;;4177512;28;20103;-65
2022/08/05 08:20:50;;;;;;;3.08;2.20;;;28.60;77.80;;;;;;4177839;28;20428;-64
2022/08/05 08:22:58;;;;;;;9.25;3.20;;;28.50;77.50;;;;;;4177233;28;20592;-65
2022/08/05 08:24:59;;;;;;;6.43;1.98;;;28.80;77.50;;;;;;4177504;28;20071;-65
2022/08/05 08:27:01;;;;;;;7.32;3.38;;;29.00;76.90;;;;;;4177221;28;20429;-63
2022/08/05 08:29:03;;;;;;;7.57;2.10;;;28.90;76.70;;;;;;4176856;28;20033;-68
2022/08/05 08:31:05;;;;;;;3.08;1.88;;;29.10;76.60;;;;;;4177175;28;20025;-64
2022/08/05 08:33:08;;;;;;;3.78;1.80;;;29.60;76.10;;;;;;4176775;28;20083;-64
2022/08/05 08:35:09;;;;;;;5.45;2.47;;;29.60;75.70;;;;;;4175643;28;20053;-65
2022/08/05 08:37:11;;;;;;;4.65;1.80;;;29.90;75.40;;;;;;4176550;28;20021;-65
2022/08/05 08:39:12;;;;;;;2.78;1.77;;;29.80;74.80;;;;;;4177193;28;20041;-66
2022/08/05 08:41:15;;;;;;;1.85;1.70;;;29.70;74.70;;;;;;4176045;28;20037;-67
2022/08/05 08:43:18;;;;;;;3.47;1.17;;;29.80;74.60;;;;;;4177721;28;20451;-66
2022/08/05 08:45:21;;;;;;;2.45;1.40;;;29.80;74.00;;;;;;4176498;28;20091;-64
2022/08/05 08:47:24;;;;;;;2.33;1.42;;;29.90;73.80;;;;;;4178092;28;20017;-64
2022/08/05 08:49:26;;;;;;;1.65;1.40;;;30.30;73.60;;;;;;4176642;28;20029;-65
2022/08/05 08:51:31;;;;;;;8.52;1.77;;;30.40;73.40;;;;;;4177692;28;20075;-64
2022/08/05 08:53:36;;;;;;;1.58;1.30;;;30.20;72.80;;;;;;4176607;28;20082;-64
2022/08/05 08:55:39;;;;;;;6.90;1.70;;;30.30;72.40;;;;;;4177326;28;20045;-65
2022/08/05 08:57:40;;;;;;;6.60;1.70;;;30.30;72.20;;;;;;4176103;28;20041;-64
2022/08/05 08:59:41;;;;;;;4.75;1.90;;;30.40;72.10;;;;;;4177338;28;20440;-64
2022/08/05 09:01:44;;;;;;;2.45;1.35;;;30.40;71.70;;;;;;4176876;28;20094;-64
2022/08/05 09:03:48;;;;;;;5.07;1.35;;;30.30;71.40;;;;;;4176930;28;20107;-72
2022/08/05 09:05:49;;;;;;;2.13;1.92;;;30.20;71.20;;;;;;4177232;28;20083;-64
2022/08/05 09:07:52;;;;;;;1.40;1.30;;;30.50;71.60;;;;;;4176780;28;20017;-72
2022/08/05 09:09:53;;;;;;;12.50;1.70;;;30.70;71.40;;;;;;4177363;28;20036;-65
2022/08/05 09:11:54;;;;;;;3.75;1.40;;;30.80;71.20;;;;;;4174789;28;20095;-65
2022/08/05 09:13:56;;;;;;;3.80;1.48;;;30.70;70.80;;;;;;4177440;28;20041;-64
2022/08/05 09:15:57;;;;;;;2.03;1.02;;;30.40;70.40;;;;;;4176253;28;20102;-65
2022/08/05 09:17:58;;;;;;;2.15;1.30;;;30.30;69.70;;;;;;4177877;28;20053;-64
2022/08/05 09:20:00;;;;;;;3.67;1.35;;;30.10;69.70;;;;;;4175968;28;20492;-65
2022/08/05 09:22:01;;;;;;;2.03;1.50;;;30.10;70.00;;;;;;4177657;28;20032;-68
2022/08/05 09:24:07;;;;;;;1.90;1.10;;;30.30;70.30;;;;;;4176268;28;20033;-67
2022/08/05 09:26:18;;;;;;;2.35;1.35;;;30.30;70.20;;;;;;4177636;28;20025;-65
2022/08/05 09:28:23;;;;;;;2.92;1.48;;;30.30;69.80;;;;;;4175898;28;20045;-64
2022/08/05 09:30:24;;;;;;;1.58;1.33;;;30.60;69.90;;;;;;4177470;28;20106;-66
2022/08/05 09:32:38;;;;;;;3.55;1.30;;;30.50;69.20;;;;;;4176458;28;20017;-65
2022/08/05 09:35:15;;;;;;;1.48;0.95;;;30.30;68.40;;;;;;4177446;28;20041;-64
2022/08/05 09:37:19;;;;;;;1.00;0.80;;;30.10;67.20;;;;;;4176207;28;20469;-64
2022/08/05 09:39:21;;;;;;;1.42;1.23;;;30.10;68.10;;;;;;4177429;28;20420;-64
2022/08/05 09:41:23;;;;;;;1.60;1.17;;;30.20;68.10;;;;;;4176243;28;20033;-65
2022/08/05 09:43:42;;;;;;;4.30;1.00;;;30.20;67.90;;;;;;4177462;28;20040;-69
2022/08/05 09:45:43;;;;;;;2.77;0.90;;;30.30;66.30;;;;;;4176318;28;20102;-65
2022/08/05 09:47:44;;;;;;;1.83;1.63;;;30.50;67.20;;;;;;4177830;28;20278;-65
2022/08/05 09:49:48;;;;;;;2.83;1.95;;;30.80;67.10;;;;;;4176118;28;20078;-63
2022/08/05 09:51:49;;;;;;;1.48;1.05;;;31.10;66.90;;;;;;4179569;28;20033;-64
2022/08/05 09:53:51;;;;;;;3.75;1.90;;;31.30;67.60;;;;;;4179308;28;20028;-64
2022/08/05 09:55:55;;;;;;;1.98;1.27;;;31.40;66.80;;;;;;4180276;28;20029;-64
2022/08/05 09:57:58;;;;;;;4.38;1.30;;;31.50;66.30;;;;;;4179512;28;20075;-64
2022/08/05 10:00:07;;;;;;;1.65;1.55;;;31.50;65.80;;;;;;4179705;28;20091;-64
2022/08/05 10:02:08;;;;;;;2.95;1.25;;;31.40;65.30;;;;;;4179307;28;20102;-65
2022/08/05 10:04:12;;;;;;;1.40;1.20;;;31.20;65.00;;;;;;4177900;28;20179;-64
2022/08/05 10:06:18;;;;;;;1.80;1.20;;;31.00;65.40;;;;;;4179816;28;20099;-66
2022/08/05 10:08:24;;;;;;;1.58;1.15;;;30.80;65.40;;;;;;4179330;28;20017;-67
2022/08/05 10:10:30;;;;;;;2.60;1.30;;;30.80;65.40;;;;;;4179934;28;20029;-64
2022/08/05 10:12:39;;;;;;;2.13;1.42;;;30.70;64.80;;;;;;4179182;28;20040;-64
2022/08/05 10:14:40;;;;;;;1.40;1.30;;;30.70;64.60;;;;;;4179663;28;20079;-65
2022/08/05 10:16:42;;;;;;;1.08;1.08;;;30.70;64.80;;;;;;4178422;28;20071;-63
2022/08/05 10:18:43;;;;;;;1.38;1.27;;;30.80;64.70;;;;;;4180507;28;20040;-64
2022/08/05 10:20:51;;;;;;;2.78;1.23;;;30.90;64.10;;;;;;4178653;28;20029;-63
2022/08/05 10:22:52;;;;;;;2.38;0.82;;;30.90;63.60;;;;;;4179818;28;20037;-64
2022/08/05 10:24:54;;;;;;;2.00;1.35;;;30.90;63.40;;;;;;4178398;28;20433;-63
2022/08/05 10:26:55;;;;;;;3.67;1.55;;;30.80;63.50;;;;;;4179487;28;20717;-63
2022/08/05 10:28:56;;;;;;;4.65;1.60;;;31.00;63.70;;;;;;4178558;28;20067;-62
2022/08/05 10:30:58;;;;;;;1.48;1.23;;;31.20;63.60;;;;;;4179844;28;20094;-63
2022/08/05 10:33:01;;;;;;;3.15;1.05;;;31.30;63.30;;;;;;4178506;28;20029;-64
2022/08/05 10:35:03;;;;;;;2.83;1.08;;;31.20;63.00;;;;;;4179806;28;20037;-63
2022/08/05 10:37:04;;;;;;;2.80;1.33;;;31.20;62.40;;;;;;4178880;28;20056;-64
2022/08/05 10:39:15;;;;;;;3.13;1.40;;;31.40;62.10;;;;;;4179225;28;20041;-63
2022/08/05 10:41:31;;;;;;;1.38;1.27;;;31.50;61.90;;;;;;4178359;28;20025;-64
2022/08/05 10:43:51;;;;;;;3.65;0.93;;;31.30;62.30;;;;;;4179134;28;20470;-64
2022/08/05 10:46:10;;;;;;;1.30;1.20;;;31.30;63.30;;;;;;4178385;28;20057;-64